CST,Max TemperatureF,Mean TemperatureF,Min TemperatureF,Max Dew PointF,MeanDew PointF,Min DewpointF,Max Humidity, Mean Humidity, Min Humidity, Max Sea Level PressureIn, Mean Sea Level PressureIn, Min Sea Level PressureIn, Max VisibilityMiles, Mean VisibilityMiles, Min VisibilityMiles, Max Wind SpeedMPH, Mean Wind SpeedMPH, Max Gust SpeedMPH,PrecipitationIn, CloudCover, Events, WindDirDegrees
2012-11-1,43,36,30,34,26,19,81,65,52,30.13,30.03,29.94,10,10,10,15,11,22,0.00,7,Rain,348
2012-11-2,39,31,25,25,22,19,85,65,47,30.22,30.18,30.11,10,10,10,12,5,,0.00,5,,43
2012-11-3,39,36,33,28,25,22,73,65,57,30.27,30.24,30.21,10,10,10,6,2,,0.00,8,,85
2012-11-4,42,37,32,27,25,24,79,64,49,30.27,30.24,30.20,10,10,10,9,4,,0.00,8,,69
2012-11-5,39,36,34,36,30,24,93,78,62,30.25,30.11,29.85,10,7,2,13,6,21,0.02,8,Rain,137
2012-11-6,39,36,33,34,32,30,93,83,70,30.02,29.82,29.70,10,8,1,18,10,25,0.21,8,Rain-Snow,284
2012-11-7,46,42,37,34,32,28,87,72,50,30.12,30.05,29.99,10,10,10,14,5,,0.00,6,Rain,262
2012-11-8,52,44,36,36,32,30,79,69,50,30.09,29.99,29.92,10,10,10,16,12,23,0.00,3,,318
2012-11-9,41,39,37,34,32,29,79,75,70,30.15,30.09,30.01,10,10,10,15,9,23,0.00,8,,56
2012-11-10,48,42,37,46,38,33,93,88,79,29.97,29.65,29.43,10,3,0,26,8,37,0.36,8,Fog-Rain-Thunderstorm,85
2012-11-11,50,34,19,47,23,11,93,76,63,29.89,29.72,29.44,10,8,2,20,13,28,0.00,8,Snow,254
2012-11-12,24,20,17,15,12,10,75,69,60,30.28,30.00,29.82,10,9,3,17,13,30,0.00,7,Snow,263
2012-11-13,39,27,15,25,18,10,86,67,43,30.33,30.30,30.23,10,10,10,10,6,,0.00,3,,188
2012-11-14,48,40,32,29,27,24,79,65,44,30.26,30.21,30.12,10,10,10,10,5,,0.00,3,,189
2012-11-15,41,32,24,29,17,3,85,57,24,30.53,30.32,30.12,10,9,7,18,6,22,0.00,1,,334
2012-11-16,39,28,16,21,13,8,81,53,28,30.53,30.43,30.28,10,10,10,13,3,17,0.00,0,,153
2012-11-17,52,44,37,34,31,24,70,56,47,30.27,30.19,30.14,10,10,9,17,12,22,0.00,0,,173
2012-11-18,55,49,43,33,32,30,60,52,42,30.12,30.07,30.04,10,10,10,16,11,23,0.00,1,,162
2012-11-19,57,47,33,37,34,29,85,60,45,30.13,30.04,30.00,10,10,6,13,9,,0.00,1,,211
2012-11-20,46,34,23,34,28,19,100,81,53,30.21,30.14,30.00,10,4,0,12,2,,0.00,2,Fog,180
2012-11-21,59,46,32,39,32,27,85,61,38,29.98,29.85,29.60,10,10,7,15,6,21,0.00,0,,175
2012-11-22,52,36,21,39,24,15,86,77,61,30.00,29.81,29.55,10,4,0,23,12,36,0.00,7,Fog-Rain-Snow,294
2012-11-23,23,18,14,14,10,7,74,68,59,30.43,30.27,29.98,10,7,2,22,18,37,0.00,6,Snow,320
2012-11-24,24,17,10,16,10,6,85,74,65,30.38,30.11,29.78,10,10,10,15,5,,0.00,8,,184
2012-11-25,28,22,15,21,17,6,80,72,57,30.23,29.99,29.84,10,7,2,18,10,24,0.00,8,Snow,300
2012-11-26,17,10,3,7,3,-2,77,67,57,30.46,30.38,30.26,10,10,10,13,9,,0.00,2,,271
2012-11-27,30,23,16,21,15,7,72,67,61,30.29,30.19,30.06,10,10,10,14,8,17,0.00,7,,259
2012-11-28,32,26,21,23,19,13,81,71,65,30.32,30.22,30.11,10,9,6,14,9,20,0.00,4,,227
2012-11-29,28,23,18,22,19,14,86,80,72,30.23,30.17,30.07,10,7,2,13,4,22,0.00,6,,58
2012-11-30,30,28,26,28,24,20,89,80,75,30.25,30.16,30.03,10,8,3,9,7,,0.00,8,,123